clownfish-translator.com alexa rank chart, clownfish-translator.com alexa rank daily changes

clownfish-translator.com alexa rank chart, clownfish-translator.com alexa rank daily changes

clownfish-translator.com
Actual rank:
60 275

RANK HISTORY

Date Rank Diff
2018/06/22 60 275 -518
2018/06/21 60 793 -9 828
2018/06/20 70 621 +24 569
2018/06/19 46 052 -576
2018/06/18 46 628 -16 757
2018/06/17 63 385 +7 041
2018/06/16 56 344 +7 016
2018/06/15 49 328 +3 917
2018/06/14 45 411 -21 641
2018/06/13 67 052 +32 532
2018/06/12 34 520 -8 548
2018/06/11 43 068 -8 665
2018/06/10 51 733 -27 942
2018/06/09 79 675 +26 104
2018/06/08 53 571 +1 404
2018/06/07 52 167 -26 907
2018/06/06 79 074 +45 622
2018/06/05 33 452 -3 499
2018/06/04 36 951 -30 170
2018/06/03 67 121 +1 012
2018/06/02 66 109 +9 550
2018/06/01 56 559 +8 112
2018/05/31 48 447 +4 491
2018/05/30 43 956 -6 722
2018/05/29 50 678 +12 393
2018/05/28 38 285 -23 257
2018/05/27 61 542 -15 851
2018/05/26 77 393 +28 929
2018/05/25 48 464 -1 895
2018/05/24 50 359 +3 941
2018/05/23 46 418 -8 462
2018/05/22 54 880 +8 090
2018/05/21 46 790 -23 181
2018/05/20 69 971 -9 786
2018/05/19 79 757 +4 006
2018/05/18 75 751 -7 411
2018/05/17 83 162 +1 312
2018/05/16 81 850 +45 312
2018/05/15 36 538 -12 334
2018/05/14 48 872 -18 773
2018/05/13 67 645 +1 012
2018/05/12 66 633 +9 956
2018/05/11 56 677 -49 925
2018/05/10 106 602 +41 861
2018/05/09 64 741 +25 364
2018/05/08 39 377 -654
2018/05/07 40 031 -12 685
2018/05/06 52 716 -20 711
2018/05/05 73 427 -2 156
2018/05/04 75 583 +7 923
2018/05/03 67 660 +629
2018/05/02 67 031 +24 411
2018/05/01 42 620 +9 881
2018/04/30 32 739 -24 137
2018/04/29 56 876 +1 268
2018/04/28 55 608 +13 096
2018/04/27 42 512 -16 356
2018/04/26 58 868 -11 879
2018/04/25 70 747 +37 484
2018/04/24 33 263 -9 249
2018/04/23 42 512

WIDGET FOR YOUR SITE

DOMAINS WITH THE NEAREST RANK

Domain Rank
paytakhteketab.com 60 270
nextadvisor.com 60 271
history-doc.ru 60 272
ckck.tv 60 273
atlantapublicschools.us 60 274
clownfish-translator.com 60 275
jat.fun 60 276
humankinetics.com 60 277
librosweb.es 60 278
you.dj 60 279
uvsq.fr 60 280

DOMAINS WITH THE NEAREST RANK BY TLD .com

Domain Rank
misabueso.com 60 265
ua-referat.com 60 266
a4academics.com 60 269
paytakhteketab.com 60 270
nextadvisor.com 60 271
clownfish-translator.com 60 275
humankinetics.com 60 277
madagascar-tribune.com 60 281
micmusik.com 60 286
devart.com 60 289
whichav.com 60 291